createdAt,value
2018-09-23T00:02:11.581Z,10.60
2018-09-23T00:04:39.145Z,10.70
2018-09-23T00:07:06.724Z,10.70
2018-09-23T00:09:34.299Z,10.60
2018-09-23T00:12:01.837Z,10.60
2018-09-23T00:14:29.360Z,10.60
2018-09-23T00:16:56.806Z,10.80
2018-09-23T00:19:24.860Z,10.70
2018-09-23T00:21:52.306Z,10.60
2018-09-23T00:24:19.942Z,10.60
2018-09-23T00:26:47.567Z,10.60
2018-09-23T00:29:51.241Z,10.50
2018-09-23T00:32:22.120Z,10.50
2018-09-23T00:34:49.660Z,10.20
2018-09-23T00:37:17.121Z,10.40
2018-09-23T00:39:44.990Z,10.30
2018-09-23T00:42:12.559Z,10.50
2018-09-23T00:44:40.044Z,10.40
2018-09-23T00:47:07.667Z,10.50
2018-09-23T00:49:35.195Z,10.40
2018-09-23T00:52:02.785Z,10.30
2018-09-23T00:54:30.284Z,10.20
2018-09-23T00:56:57.732Z,10.10
2018-09-23T00:59:25.197Z,10.20
2018-09-23T01:01:52.654Z,10.20
2018-09-23T01:04:20.112Z,10.20
2018-09-23T01:06:47.719Z,10.20
2018-09-23T01:09:15.192Z,10.10
2018-09-23T01:11:42.628Z,10.30
2018-09-23T01:14:10.116Z,10.10
2018-09-23T01:16:37.605Z,10.00
2018-09-23T01:19:05.285Z,9.80
2018-09-23T01:21:32.758Z,10.10
2018-09-23T01:24:00.254Z,10.20
2018-09-23T01:26:27.787Z,10.20
2018-09-23T01:28:55.272Z,10.20
2018-09-23T01:31:22.736Z,10.30
2018-09-23T01:33:50.209Z,10.20
2018-09-23T01:36:17.662Z,10.10
2018-09-23T01:38:45.117Z,10.10
2018-09-23T01:41:12.606Z,10.20
2018-09-23T01:43:40.039Z,10.20
2018-09-23T01:46:07.491Z,10.30
2018-09-23T01:48:34.978Z,10.20
2018-09-23T01:51:02.479Z,10.10
2018-09-23T01:53:29.965Z,10.00
2018-09-23T01:55:57.451Z,10.00
2018-09-23T01:58:24.889Z,9.90
2018-09-23T02:00:52.367Z,10.10
2018-09-23T02:03:19.871Z,10.10
2018-09-23T02:05:47.359Z,10.00
2018-09-23T02:08:14.819Z,10.20
2018-09-23T02:10:42.421Z,10.30
2018-09-23T02:13:09.874Z,10.20
2018-09-23T02:15:37.366Z,10.20
2018-09-23T02:18:04.941Z,10.30
2018-09-23T02:20:32.534Z,10.20
2018-09-23T02:22:59.961Z,10.20
2018-09-23T02:25:27.448Z,10.20
2018-09-23T02:27:54.881Z,10.20
2018-09-23T02:30:22.389Z,10.30
2018-09-23T02:32:49.838Z,10.20
2018-09-23T02:35:17.398Z,10.10
2018-09-23T02:37:44.853Z,10.20
2018-09-23T02:40:12.351Z,10.20
2018-09-23T02:42:39.802Z,10.20
2018-09-23T02:45:07.430Z,10.30
2018-09-23T02:47:35.395Z,10.30
2018-09-23T02:50:03.758Z,10.10
2018-09-23T02:52:31.279Z,10.00
2018-09-23T02:54:58.792Z,10.00
2018-09-23T02:57:26.249Z,9.80
2018-09-23T02:59:53.791Z,9.90
2018-09-23T03:02:21.274Z,9.80
2018-09-23T03:04:48.763Z,9.80
2018-09-23T03:07:16.210Z,9.80
2018-09-23T03:09:43.679Z,9.80
2018-09-23T03:12:11.398Z,9.70
2018-09-23T03:14:38.841Z,9.80
2018-09-23T03:17:06.324Z,9.70
2018-09-23T03:19:33.785Z,9.80
2018-09-23T03:22:01.316Z,9.70
2018-09-23T03:24:28.887Z,9.80
2018-09-23T03:26:56.376Z,9.90
2018-09-23T03:29:23.902Z,9.70
2018-09-23T03:31:51.398Z,9.80
2018-09-23T03:34:19.019Z,9.60
2018-09-23T03:36:46.532Z,9.60
2018-09-23T03:39:13.999Z,9.70
2018-09-23T03:41:41.703Z,9.80
2018-09-23T03:44:09.319Z,9.80
2018-09-23T03:46:36.780Z,9.90
2018-09-23T03:49:04.330Z,9.80
2018-09-23T03:51:31.932Z,9.80
2018-09-23T03:53:59.493Z,9.80
2018-09-23T03:56:27.186Z,10.00
2018-09-23T03:58:54.652Z,9.90
2018-09-23T04:01:22.145Z,9.90
2018-09-23T04:03:49.732Z,9.50
2018-09-23T04:06:17.287Z,9.70
2018-09-23T04:08:44.739Z,9.70
2018-09-23T04:11:12.213Z,9.80
2018-09-23T04:13:39.704Z,9.70
2018-09-23T04:16:07.192Z,9.60
2018-09-23T04:18:34.670Z,9.70
2018-09-23T04:21:02.157Z,9.50
2018-09-23T04:23:29.610Z,9.50
2018-09-23T04:25:57.118Z,9.90
2018-09-23T04:28:24.573Z,9.70
2018-09-23T04:30:52.050Z,9.70
2018-09-23T04:33:19.493Z,9.60
2018-09-23T04:35:46.975Z,9.60
2018-09-23T04:38:14.532Z,9.60
2018-09-23T04:40:41.986Z,9.60
2018-09-23T04:43:09.549Z,9.60
2018-09-23T04:45:36.990Z,9.70
2018-09-23T04:48:05.347Z,9.70
2018-09-23T04:50:32.835Z,9.70
2018-09-23T04:53:00.320Z,9.90
2018-09-23T04:55:27.858Z,9.70
2018-09-23T04:57:55.283Z,9.60
2018-09-23T05:00:22.769Z,9.50
2018-09-23T05:02:50.228Z,9.70
2018-09-23T05:05:17.702Z,9.70
2018-09-23T05:07:45.180Z,9.80
2018-09-23T05:10:13.140Z,9.80
2018-09-23T05:12:40.632Z,9.80
2018-09-23T05:15:08.085Z,9.80
2018-09-23T05:17:35.653Z,9.70
2018-09-23T05:20:03.123Z,9.80
2018-09-23T05:22:30.599Z,9.80
2018-09-23T05:24:58.115Z,9.70
2018-09-23T05:27:25.664Z,9.80
2018-09-23T05:29:53.150Z,9.90
2018-09-23T05:32:20.803Z,10.00
2018-09-23T05:34:48.295Z,10.00
2018-09-23T05:37:15.782Z,9.90
2018-09-23T05:39:43.296Z,10.00
2018-09-23T05:42:10.836Z,9.90
2018-09-23T05:44:42.120Z,10.00
2018-09-23T05:47:09.589Z,10.00
2018-09-23T05:49:37.297Z,10.00
2018-09-23T05:52:05.096Z,10.00
2018-09-23T05:54:32.530Z,10.10
2018-09-23T05:57:02.433Z,10.10
2018-09-23T05:59:29.985Z,10.10
2018-09-23T06:01:57.557Z,10.20
2018-09-23T06:04:24.993Z,10.00
2018-09-23T06:06:52.477Z,10.20
2018-09-23T06:09:20.005Z,10.10
2018-09-23T06:11:47.583Z,10.20
2018-09-23T06:14:15.052Z,10.00
2018-09-23T06:16:42.520Z,10.20
2018-09-23T06:19:09.982Z,10.20
2018-09-23T06:21:37.476Z,10.30
2018-09-23T06:24:04.984Z,10.40
2018-09-23T06:26:32.438Z,10.50
2018-09-23T06:28:59.920Z,10.50
2018-09-23T06:31:27.586Z,10.30
2018-09-23T06:33:55.044Z,10.30
2018-09-23T06:36:22.481Z,10.30
2018-09-23T06:38:50.341Z,10.40
2018-09-23T06:41:17.780Z,10.30
2018-09-23T06:43:45.370Z,10.20
2018-09-23T06:46:12.848Z,10.00
2018-09-23T06:48:40.326Z,10.40
2018-09-23T06:51:07.827Z,10.60
2018-09-23T06:53:35.444Z,10.50
2018-09-23T06:56:02.910Z,10.50
2018-09-23T06:58:30.382Z,10.40
2018-09-23T07:00:57.831Z,10.50
2018-09-23T07:03:25.352Z,10.70
2018-09-23T07:05:52.889Z,10.80
2018-09-23T07:08:20.364Z,10.70
2018-09-23T07:10:47.820Z,10.90
2018-09-23T07:13:15.290Z,10.80
2018-09-23T07:15:42.720Z,10.70
2018-09-23T07:18:10.237Z,10.60
2018-09-23T07:20:37.685Z,10.60
2018-09-23T07:23:05.291Z,10.50
2018-09-23T07:25:32.849Z,10.70
2018-09-23T07:28:00.327Z,10.90
2018-09-23T07:30:27.758Z,10.80
2018-09-23T07:32:55.240Z,11.00
2018-09-23T07:35:22.663Z,11.00
2018-09-23T07:37:50.111Z,10.90
2018-09-23T07:40:17.576Z,11.10
2018-09-23T07:42:45.063Z,11.30
2018-09-23T07:45:12.493Z,11.50
2018-09-23T07:47:39.948Z,11.60
2018-09-23T07:50:07.459Z,11.20
2018-09-23T07:52:35.052Z,11.00
2018-09-23T07:55:02.557Z,11.20
2018-09-23T07:57:29.998Z,11.00
2018-09-23T07:59:57.497Z,10.90
2018-09-23T08:02:25.006Z,10.90
2018-09-23T08:04:52.475Z,10.90
2018-09-23T08:07:19.922Z,11.10
2018-09-23T08:09:47.402Z,11.40
2018-09-23T08:12:14.872Z,11.30
2018-09-23T08:14:42.763Z,11.50
2018-09-23T08:17:09.908Z,11.60
2018-09-23T08:19:37.482Z,11.60
2018-09-23T08:22:04.868Z,11.60
2018-09-23T08:24:32.438Z,11.70
2018-09-23T08:26:59.983Z,12.00
2018-09-23T08:29:27.776Z,12.00
2018-09-23T08:31:55.252Z,12.00
2018-09-23T08:34:22.725Z,12.20
2018-09-23T08:36:50.176Z,11.90
2018-09-23T08:39:17.784Z,12.30
2018-09-23T08:41:45.338Z,12.30
2018-09-23T08:44:12.800Z,12.70
2018-09-23T08:46:40.249Z,12.90
2018-09-23T08:49:07.738Z,12.70
2018-09-23T08:51:35.177Z,12.60
2018-09-23T08:54:02.652Z,12.90
2018-09-23T08:56:30.092Z,13.00
2018-09-23T08:58:57.605Z,13.00
2018-09-23T09:01:25.060Z,13.00
2018-09-23T09:03:52.535Z,12.50
2018-09-23T09:06:19.973Z,12.40
2018-09-23T09:08:47.465Z,12.40
2018-09-23T09:11:14.969Z,12.30
2018-09-23T09:13:42.479Z,12.50
2018-09-23T09:16:09.913Z,12.50
2018-09-23T09:18:37.583Z,12.80
2018-09-23T09:21:05.501Z,12.80
2018-09-23T09:23:32.977Z,13.00
2018-09-23T09:26:00.482Z,12.80
2018-09-23T09:28:27.988Z,12.90
2018-09-23T09:30:55.572Z,12.60
2018-09-23T09:33:23.036Z,13.00
2018-09-23T09:35:50.528Z,13.10
2018-09-23T09:38:18.013Z,13.10
2018-09-23T09:40:45.517Z,13.20
2018-09-23T09:43:12.976Z,13.20
2018-09-23T09:45:40.749Z,13.30
2018-09-23T09:48:08.216Z,13.10
2018-09-23T09:50:35.743Z,13.40
2018-09-23T09:53:03.184Z,13.60
2018-09-23T09:55:30.850Z,13.50
2018-09-23T09:57:58.275Z,13.50
2018-09-23T10:00:34.452Z,13.80
2018-09-23T10:03:02.930Z,13.70
2018-09-23T10:05:30.476Z,13.70
2018-09-23T10:07:57.997Z,13.80
2018-09-23T10:10:25.728Z,13.80
2018-09-23T10:12:53.225Z,14.00
2018-09-23T10:15:20.774Z,13.80
2018-09-23T10:17:48.291Z,14.00
2018-09-23T10:20:15.787Z,14.60
2018-09-23T10:22:43.561Z,14.60
2018-09-23T10:25:10.989Z,14.50
2018-09-23T10:27:38.572Z,14.40
2018-09-23T10:30:07.482Z,14.60
2018-09-23T10:32:34.987Z,14.60
2018-09-23T10:35:02.495Z,14.60
2018-09-23T10:37:29.993Z,14.80
2018-09-23T10:39:57.622Z,14.60
2018-09-23T10:42:25.868Z,14.30
2018-09-23T10:44:54.044Z,14.20
2018-09-23T10:47:21.601Z,14.10
2018-09-23T10:49:49.139Z,14.50
2018-09-23T10:52:16.609Z,14.40
2018-09-23T10:54:44.121Z,14.40
2018-09-23T10:57:11.633Z,14.30
2018-09-23T10:59:39.514Z,14.20
2018-09-23T11:02:07.028Z,14.30
2018-09-23T11:04:34.473Z,14.10
2018-09-23T11:07:01.955Z,14.20
2018-09-23T11:09:29.445Z,14.20
2018-09-23T11:11:56.908Z,14.20
2018-09-23T11:14:24.345Z,14.20
2018-09-23T11:16:51.824Z,14.30
2018-09-23T11:19:19.254Z,14.10
2018-09-23T11:21:46.789Z,14.00
2018-09-23T11:24:14.273Z,14.00
2018-09-23T11:26:41.779Z,13.90
2018-09-23T11:29:09.213Z,14.00
2018-09-23T11:31:36.689Z,13.90
2018-09-23T11:34:04.150Z,13.80
2018-09-23T11:36:31.758Z,13.90
2018-09-23T11:38:59.214Z,13.90
2018-09-23T11:41:26.979Z,13.90
2018-09-23T11:43:54.465Z,14.00
2018-09-23T11:46:21.985Z,13.90
2018-09-23T11:48:49.557Z,13.80
2018-09-23T11:51:17.071Z,13.80
2018-09-23T11:53:44.524Z,13.80
2018-09-23T11:56:12.000Z,14.00
2018-09-23T11:58:39.677Z,14.00
2018-09-23T12:01:07.321Z,14.20
2018-09-23T12:03:34.813Z,14.30
2018-09-23T12:06:02.401Z,14.50
2018-09-23T12:08:29.858Z,14.70
2018-09-23T12:10:57.454Z,14.50
2018-09-23T12:13:24.846Z,14.40
2018-09-23T12:15:52.320Z,14.60
2018-09-23T12:18:19.752Z,14.60
2018-09-23T12:20:47.242Z,14.60
2018-09-23T12:23:14.688Z,14.50
2018-09-23T12:25:42.220Z,14.60
2018-09-23T12:28:09.788Z,14.60
2018-09-23T12:30:37.341Z,14.60
2018-09-23T12:33:04.907Z,14.80
2018-09-23T12:35:32.497Z,14.40
2018-09-23T12:37:59.973Z,14.40
2018-09-23T12:40:27.435Z,14.10
2018-09-23T12:42:54.913Z,14.10
2018-09-23T12:45:22.365Z,14.20
2018-09-23T12:47:49.853Z,14.00
2018-09-23T12:50:17.412Z,14.00
2018-09-23T12:52:44.895Z,13.70
2018-09-23T12:55:12.377Z,13.50
2018-09-23T12:57:39.853Z,13.60
2018-09-23T13:00:07.823Z,13.80
2018-09-23T13:02:35.327Z,13.70
2018-09-23T13:05:02.968Z,13.80
2018-09-23T13:07:30.401Z,14.10
2018-09-23T13:09:57.917Z,13.80
2018-09-23T13:12:25.349Z,13.80
2018-09-23T13:14:52.833Z,13.80
2018-09-23T13:17:20.314Z,14.20
2018-09-23T13:19:47.788Z,14.20
2018-09-23T13:22:15.346Z,14.00
2018-09-23T13:24:42.813Z,13.90
2018-09-23T13:27:10.269Z,13.60
2018-09-23T13:29:37.757Z,13.60
2018-09-23T13:32:05.261Z,13.60
2018-09-23T13:34:32.768Z,13.60
2018-09-23T13:37:00.251Z,13.60
2018-09-23T13:39:27.766Z,13.60
2018-09-23T13:41:55.250Z,13.50
2018-09-23T13:44:22.729Z,13.50
2018-09-23T13:46:50.240Z,13.50
2018-09-23T13:49:17.798Z,13.50
2018-09-23T13:51:45.294Z,13.30
2018-09-23T13:54:12.730Z,13.20
2018-09-23T13:56:40.420Z,13.20
2018-09-23T13:59:09.875Z,13.20
2018-09-23T14:01:38.310Z,13.30
2018-09-23T14:04:05.807Z,13.40
2018-09-23T14:06:33.825Z,13.30
2018-09-23T14:09:01.535Z,13.30
2018-09-23T14:11:29.077Z,13.20
2018-09-23T14:13:56.522Z,13.20
2018-09-23T14:16:24.145Z,13.20
2018-09-23T14:18:51.893Z,13.40
2018-09-23T14:21:19.386Z,13.40
2018-09-23T14:23:46.851Z,13.30
2018-09-23T14:26:14.296Z,13.40
2018-09-23T14:28:41.744Z,13.20
2018-09-23T14:31:09.244Z,13.20
2018-09-23T14:33:36.842Z,13.40
2018-09-23T14:36:04.341Z,13.30
2018-09-23T14:38:31.821Z,13.40
2018-09-23T14:40:59.318Z,13.40
2018-09-23T14:43:26.861Z,13.50
2018-09-23T14:45:54.469Z,13.50
2018-09-23T14:48:22.033Z,13.40
2018-09-23T14:50:49.488Z,13.60
2018-09-23T14:53:16.996Z,13.70
2018-09-23T14:55:44.444Z,13.50
2018-09-23T14:58:11.958Z,13.60
2018-09-23T15:00:39.492Z,13.50
2018-09-23T15:03:06.930Z,13.40
2018-09-23T15:05:34.380Z,13.40
2018-09-23T15:08:02.397Z,13.30
2018-09-23T15:10:29.904Z,13.20
2018-09-23T15:12:57.401Z,13.30
2018-09-23T15:15:24.859Z,13.30
2018-09-23T15:17:52.342Z,13.20
2018-09-23T15:20:19.781Z,13.30
2018-09-23T15:22:47.277Z,13.30
2018-09-23T15:25:14.742Z,13.20
2018-09-23T15:27:42.230Z,13.20
2018-09-23T15:30:09.717Z,13.10
2018-09-23T15:32:37.247Z,13.20
2018-09-23T15:35:04.772Z,13.00
2018-09-23T15:37:32.249Z,12.90
2018-09-23T15:39:59.725Z,12.90
2018-09-23T15:42:27.231Z,12.90
2018-09-23T15:44:54.694Z,12.80
2018-09-23T15:47:22.277Z,12.90
2018-09-23T15:49:49.848Z,12.90
2018-09-23T15:52:17.384Z,13.10
2018-09-23T15:54:44.836Z,13.00
2018-09-23T15:57:12.333Z,13.00
2018-09-23T15:59:40.437Z,12.90
2018-09-23T16:02:07.918Z,12.80
2018-09-23T16:04:35.388Z,12.80
2018-09-23T16:07:02.936Z,12.70
2018-09-23T16:09:30.512Z,12.70
2018-09-23T16:11:58.024Z,12.60
2018-09-23T16:14:25.489Z,12.50
2018-09-23T16:16:52.986Z,12.60
2018-09-23T16:19:20.528Z,12.60
2018-09-23T16:21:48.097Z,12.60
2018-09-23T16:24:15.673Z,12.60
2018-09-23T16:26:43.052Z,12.50
2018-09-23T16:29:10.531Z,12.50
2018-09-23T16:31:37.984Z,12.40
2018-09-23T16:34:05.481Z,12.40
2018-09-23T16:36:33.043Z,12.30
2018-09-23T16:39:00.801Z,12.30
2018-09-23T16:41:28.239Z,12.40
2018-09-23T16:43:55.926Z,12.40
2018-09-23T16:46:23.486Z,12.30
2018-09-23T16:48:51.042Z,12.30
2018-09-23T16:51:18.472Z,12.40
2018-09-23T16:53:45.979Z,12.30
2018-09-23T16:56:13.427Z,12.20
2018-09-23T16:58:40.910Z,12.10
2018-09-23T17:01:08.348Z,11.80
2018-09-23T17:03:35.930Z,11.70
2018-09-23T17:06:03.408Z,11.70
2018-09-23T17:08:30.873Z,11.40
2018-09-23T17:10:58.319Z,11.10
2018-09-23T17:13:25.810Z,11.20
2018-09-23T17:15:53.233Z,11.00
2018-09-23T17:18:20.697Z,11.00
2018-09-23T17:20:48.153Z,11.00
2018-09-23T17:23:15.646Z,11.10
2018-09-23T17:25:43.201Z,11.20
2018-09-23T17:28:10.750Z,11.20
2018-09-23T17:30:38.185Z,11.20
2018-09-23T17:33:05.711Z,11.30
2018-09-23T17:35:36.946Z,11.30
2018-09-23T17:38:04.413Z,11.10
2018-09-23T17:40:31.908Z,10.90
2018-09-23T17:42:59.365Z,11.00
2018-09-23T17:45:26.916Z,11.00
2018-09-23T17:47:54.377Z,11.10
2018-09-23T17:50:21.864Z,11.00
2018-09-23T17:52:49.429Z,11.10
2018-09-23T17:55:16.955Z,11.20
2018-09-23T17:57:44.444Z,11.00
2018-09-23T18:00:12.361Z,11.00
2018-09-23T18:02:39.831Z,10.90
2018-09-23T18:05:07.309Z,11.10
2018-09-23T18:07:34.884Z,11.00
2018-09-23T18:10:02.379Z,11.00
2018-09-23T18:12:29.826Z,10.90
2018-09-23T18:14:57.346Z,10.80
2018-09-23T18:17:24.807Z,11.00
2018-09-23T18:19:53.148Z,11.00
2018-09-23T18:22:20.772Z,10.90
2018-09-23T18:24:48.276Z,10.90
2018-09-23T18:27:15.735Z,10.80
2018-09-23T18:29:43.281Z,10.80
2018-09-23T18:32:10.782Z,10.60
2018-09-23T18:34:38.272Z,10.60
2018-09-23T18:37:05.915Z,10.60
2018-09-23T18:39:33.391Z,10.70
2018-09-23T18:42:00.837Z,10.60
2018-09-23T18:44:28.474Z,10.60
2018-09-23T18:46:56.052Z,10.60
2018-09-23T18:49:24.420Z,10.50
2018-09-23T18:51:51.975Z,10.50
2018-09-23T18:54:25.036Z,10.50
2018-09-23T18:56:52.515Z,10.50
2018-09-23T18:59:20.076Z,10.70
2018-09-23T19:01:47.592Z,10.60
2018-09-23T19:04:15.009Z,10.40
2018-09-23T19:06:42.548Z,10.30
2018-09-23T19:09:10.108Z,10.40
2018-09-23T19:11:37.977Z,10.50
2018-09-23T19:14:05.534Z,10.60
2018-09-23T19:16:33.839Z,10.50
2018-09-23T19:19:01.629Z,10.50
2018-09-23T19:21:29.850Z,10.40
2018-09-23T19:23:57.721Z,10.40
2018-09-23T19:26:25.597Z,10.40
2018-09-23T19:28:53.358Z,10.40
2018-09-23T19:31:20.826Z,10.40
2018-09-23T19:33:48.284Z,10.40
2018-09-23T19:36:15.763Z,10.40
2018-09-23T19:38:43.192Z,10.30
2018-09-23T19:41:10.743Z,10.20
2018-09-23T19:43:38.184Z,10.30
2018-09-23T19:46:05.720Z,10.30
2018-09-23T19:48:33.315Z,10.30
2018-09-23T19:51:00.860Z,10.30
2018-09-23T19:53:28.316Z,10.50
2018-09-23T19:55:55.826Z,10.30
2018-09-23T19:58:23.321Z,10.40
2018-09-23T20:00:50.817Z,10.40
2018-09-23T20:03:18.349Z,10.30
2018-09-23T20:05:45.909Z,10.30
2018-09-23T20:08:13.467Z,10.20
2018-09-23T20:10:41.044Z,10.20
2018-09-23T20:13:08.495Z,10.20
2018-09-23T20:15:35.965Z,10.20
2018-09-23T20:18:03.492Z,10.20
2018-09-23T20:20:30.921Z,10.10
2018-09-23T20:22:58.430Z,10.00
2018-09-23T20:25:25.972Z,10.20
2018-09-23T20:27:53.582Z,10.10
2018-09-23T20:30:21.073Z,10.10
2018-09-23T20:32:48.542Z,10.00
2018-09-23T20:35:15.996Z,10.00
2018-09-23T20:37:43.445Z,10.00
2018-09-23T20:40:10.909Z,10.00
2018-09-23T20:42:38.361Z,10.00
2018-09-23T20:45:05.906Z,9.90
2018-09-23T20:47:37.684Z,9.90
2018-09-23T20:50:05.270Z,9.90
2018-09-23T20:52:32.735Z,9.80
2018-09-23T20:55:00.312Z,9.90
2018-09-23T20:57:27.791Z,9.90
2018-09-23T20:59:55.385Z,9.90
2018-09-23T21:02:23.036Z,10.00
2018-09-23T21:04:50.633Z,10.00
2018-09-23T21:07:18.127Z,9.80
2018-09-23T21:09:45.588Z,9.80
2018-09-23T21:12:13.080Z,9.80
2018-09-23T21:14:40.638Z,9.70
2018-09-23T21:17:13.717Z,9.70
2018-09-23T21:19:41.219Z,9.70
2018-09-23T21:22:08.740Z,9.70
2018-09-23T21:24:36.962Z,9.50
2018-09-23T21:27:04.464Z,9.60
2018-09-23T21:29:31.930Z,9.60
2018-09-23T21:31:59.392Z,9.50
2018-09-23T21:34:26.884Z,9.50
2018-09-23T21:36:54.360Z,9.30
2018-09-23T21:39:21.857Z,9.30
2018-09-23T21:41:49.417Z,9.30
2018-09-23T21:44:16.976Z,9.40
2018-09-23T21:46:45.936Z,9.40
2018-09-23T21:49:13.436Z,9.30
2018-09-23T21:51:40.941Z,9.30
2018-09-23T21:54:08.391Z,9.40
2018-09-23T21:56:35.954Z,9.30
2018-09-23T21:59:03.457Z,9.30
2018-09-23T22:01:30.909Z,9.30
2018-09-23T22:03:58.401Z,9.20
2018-09-23T22:06:25.929Z,9.20
2018-09-23T22:08:53.488Z,9.10
2018-09-23T22:11:20.956Z,9.10
2018-09-23T22:13:48.477Z,9.20
2018-09-23T22:16:15.969Z,9.20
2018-09-23T22:18:43.494Z,9.30
2018-09-23T22:21:10.975Z,9.00
2018-09-23T22:23:38.471Z,9.10
2018-09-23T22:26:06.124Z,9.10
2018-09-23T22:28:34.197Z,9.10
2018-09-23T22:31:01.776Z,9.20
2018-09-23T22:33:29.387Z,9.10
2018-09-23T22:35:56.853Z,9.00
2018-09-23T22:38:24.340Z,9.00
2018-09-23T22:40:51.789Z,9.10
2018-09-23T22:43:19.261Z,9.00
2018-09-23T22:45:46.761Z,9.00
2018-09-23T22:48:16.009Z,8.90
2018-09-23T22:50:43.470Z,8.90
2018-09-23T22:53:11.018Z,8.90
2018-09-23T22:55:38.536Z,8.90
2018-09-23T22:58:06.055Z,8.90
2018-09-23T23:00:33.598Z,9.00
2018-09-23T23:03:01.125Z,8.90
2018-09-23T23:05:28.593Z,8.80
2018-09-23T23:07:56.097Z,8.90
2018-09-23T23:10:23.576Z,8.80
2018-09-23T23:12:51.089Z,8.90
2018-09-23T23:15:18.546Z,8.80
2018-09-23T23:17:46.003Z,8.90
2018-09-23T23:20:13.473Z,8.90
2018-09-23T23:22:41.080Z,8.90
2018-09-23T23:25:08.537Z,8.90
2018-09-23T23:27:36.017Z,8.80
2018-09-23T23:30:03.732Z,8.90
2018-09-23T23:32:31.210Z,8.80
2018-09-23T23:34:58.684Z,8.90
2018-09-23T23:37:26.231Z,8.80
2018-09-23T23:39:53.746Z,8.80
2018-09-23T23:42:21.350Z,8.80
2018-09-23T23:44:49.053Z,8.80
2018-09-23T23:47:16.619Z,8.70
2018-09-23T23:49:44.072Z,8.70
2018-09-23T23:52:11.527Z,8.70
2018-09-23T23:54:38.983Z,8.70
2018-09-23T23:57:06.724Z,8.60
2018-09-23T23:59:34.261Z,8.70
